createdAt,value
2019-03-16T00:00:00.510Z,77.801514
2019-03-16T00:00:12.109Z,77.801514
2019-03-16T00:00:23.883Z,77.905273
2019-03-16T00:00:35.640Z,77.905273
2019-03-16T00:00:47.404Z,77.905273
2019-03-16T00:00:59.132Z,77.905273
2019-03-16T00:01:12.768Z,78.009033
2019-03-16T00:01:22.689Z,77.905273
2019-03-16T00:01:34.439Z,78.009033
2019-03-16T00:01:56.392Z,78.009033
2019-03-16T00:01:59.910Z,78.009033
2019-03-16T00:02:11.650Z,78.009033
2019-03-16T00:02:23.415Z,78.112793
2019-03-16T00:02:35.188Z,78.112793
2019-03-16T00:02:46.950Z,78.112793
2019-03-16T00:02:58.717Z,78.112793
2019-03-16T00:03:10.491Z,78.210449
2019-03-16T00:03:22.244Z,78.210449
2019-03-16T00:03:33.997Z,78.210449
2019-03-16T00:03:45.742Z,78.210449
2019-03-16T00:03:57.530Z,78.210449
2019-03-16T00:04:09.257Z,78.210449
2019-03-16T00:04:21.052Z,78.314209
2019-03-16T00:04:32.791Z,78.314209
2019-03-16T00:04:44.555Z,78.210449
2019-03-16T00:04:56.295Z,78.210449
2019-03-16T00:05:08.066Z,78.210449
2019-03-16T00:05:19.822Z,78.210449
2019-03-16T00:05:31.604Z,78.210449
2019-03-16T00:05:43.362Z,78.210449
2019-03-16T00:05:55.133Z,78.210449
2019-03-16T00:06:06.899Z,78.210449
2019-03-16T00:06:18.667Z,78.314209
2019-03-16T00:06:30.434Z,78.314209
2019-03-16T00:06:42.206Z,78.210449
2019-03-16T00:06:54.023Z,78.210449
2019-03-16T00:07:05.712Z,78.210449
2019-03-16T00:07:17.462Z,78.210449
2019-03-16T00:07:33.081Z,78.210449
2019-03-16T00:07:41.950Z,78.210449
2019-03-16T00:07:53.712Z,78.210449
2019-03-16T00:08:05.458Z,78.210449
2019-03-16T00:08:17.250Z,78.210449
2019-03-16T00:08:29.020Z,78.210449
2019-03-16T00:08:40.775Z,78.210449
2019-03-16T00:08:52.531Z,78.210449
2019-03-16T00:09:04.448Z,78.210449
2019-03-16T00:09:16.225Z,78.210449
2019-03-16T00:09:27.979Z,78.314209
2019-03-16T00:09:39.780Z,78.210449
2019-03-16T00:09:51.532Z,78.210449
2019-03-16T00:10:03.273Z,78.210449
2019-03-16T00:10:16.030Z,78.210449
2019-03-16T00:10:27.781Z,78.314209
2019-03-16T00:10:39.537Z,78.314209
2019-03-16T00:10:51.296Z,78.314209
2019-03-16T00:11:03.066Z,78.314209
2019-03-16T00:11:14.795Z,78.314209
2019-03-16T00:11:26.551Z,78.314209
2019-03-16T00:11:38.365Z,78.417969
2019-03-16T00:11:50.182Z,78.417969
2019-03-16T00:12:01.948Z,78.417969
2019-03-16T00:12:13.586Z,78.417969
2019-03-16T00:12:25.363Z,78.417969
2019-03-16T00:12:37.106Z,78.417969
2019-03-16T00:12:48.856Z,78.521729
2019-03-16T00:13:00.617Z,78.521729
2019-03-16T00:13:15.735Z,78.521729
2019-03-16T00:13:24.171Z,78.521729
2019-03-16T00:13:35.959Z,78.521729
2019-03-16T00:13:47.731Z,78.521729
2019-03-16T00:13:59.530Z,78.521729
2019-03-16T00:14:11.432Z,78.521729
2019-03-16T00:14:23.218Z,78.521729
2019-03-16T00:14:34.963Z,78.521729
2019-03-16T00:14:46.707Z,78.521729
2019-03-16T00:14:58.451Z,78.625488
2019-03-16T00:15:10.220Z,78.625488
2019-03-16T00:15:22.003Z,78.625488
2019-03-16T00:15:33.745Z,78.729248
2019-03-16T00:15:45.512Z,78.729248
2019-03-16T00:15:57.284Z,78.729248
2019-03-16T00:16:09.034Z,78.729248
2019-03-16T00:16:20.793Z,78.729248
2019-03-16T00:16:32.542Z,78.729248
2019-03-16T00:16:44.288Z,78.729248
2019-03-16T00:16:56.034Z,78.833008
2019-03-16T00:17:07.802Z,78.833008
2019-03-16T00:17:23.691Z,78.833008
2019-03-16T00:17:32.271Z,78.833008
2019-03-16T00:17:44.065Z,78.833008
2019-03-16T00:17:55.820Z,78.833008
2019-03-16T00:18:07.599Z,78.936768
2019-03-16T00:18:19.353Z,78.936768
2019-03-16T00:18:31.131Z,78.936768
2019-03-16T00:18:42.864Z,78.936768
2019-03-16T00:18:54.600Z,79.040527
2019-03-16T00:19:06.414Z,79.040527
2019-03-16T00:19:18.211Z,79.040527
2019-03-16T00:19:29.953Z,78.936768
2019-03-16T00:19:41.707Z,78.936768
2019-03-16T00:19:53.466Z,78.833008
2019-03-16T00:20:05.196Z,78.833008
2019-03-16T00:20:16.972Z,78.833008
2019-03-16T00:20:28.723Z,78.833008
2019-03-16T00:20:40.509Z,78.833008
2019-03-16T00:20:52.277Z,78.729248
2019-03-16T00:21:04.032Z,78.833008
2019-03-16T00:21:15.784Z,78.833008
2019-03-16T00:21:27.558Z,78.729248
2019-03-16T00:21:39.300Z,78.729248
2019-03-16T00:21:51.073Z,78.729248
2019-03-16T00:22:02.875Z,78.729248
2019-03-16T00:22:14.658Z,78.729248
2019-03-16T00:22:26.433Z,78.729248
2019-03-16T00:22:38.183Z,78.729248
2019-03-16T00:22:49.972Z,78.729248
2019-03-16T00:23:01.723Z,78.729248
2019-03-16T00:23:13.468Z,78.625488
2019-03-16T00:23:25.247Z,78.521729
2019-03-16T00:23:37.004Z,78.417969
2019-03-16T00:23:48.771Z,78.417969
2019-03-16T00:24:00.532Z,78.417969
2019-03-16T00:24:12.379Z,78.521729
2019-03-16T00:24:24.152Z,78.521729
2019-03-16T00:24:35.944Z,78.521729
2019-03-16T00:24:47.681Z,78.417969
2019-03-16T00:24:59.447Z,78.417969
2019-03-16T00:25:11.204Z,78.521729
2019-03-16T00:25:22.939Z,78.521729
2019-03-16T00:25:34.699Z,78.521729
2019-03-16T00:25:46.478Z,78.521729
2019-03-16T00:25:58.234Z,78.625488
2019-03-16T00:26:09.993Z,78.729248
2019-03-16T00:26:21.767Z,78.729248
2019-03-16T00:26:33.558Z,78.729248
2019-03-16T00:26:45.321Z,78.625488
2019-03-16T00:26:57.079Z,78.417969
2019-03-16T00:27:08.829Z,78.210449
2019-03-16T00:27:20.602Z,78.210449
2019-03-16T00:27:32.364Z,78.210449
2019-03-16T00:27:44.186Z,78.112793
2019-03-16T00:27:55.943Z,78.112793
2019-03-16T00:28:07.714Z,77.905273
2019-03-16T00:28:19.472Z,77.801514
2019-03-16T00:28:31.229Z,77.801514
2019-03-16T00:28:43.019Z,77.801514
2019-03-16T00:28:54.789Z,77.801514
2019-03-16T00:29:06.579Z,77.801514
2019-03-16T00:29:18.329Z,77.801514
2019-03-16T00:29:30.089Z,77.801514
2019-03-16T00:29:41.848Z,77.801514
2019-03-16T00:29:53.636Z,77.593994
2019-03-16T00:30:05.390Z,77.490234
2019-03-16T00:30:17.147Z,77.490234
2019-03-16T00:30:28.980Z,77.490234
2019-03-16T00:30:40.706Z,77.593994
2019-03-16T00:30:52.493Z,77.490234
2019-03-16T00:31:04.242Z,77.490234
2019-03-16T00:31:16.022Z,77.386475
2019-03-16T00:31:27.775Z,77.490234
2019-03-16T00:31:39.556Z,77.490234
2019-03-16T00:31:51.321Z,77.386475
2019-03-16T00:32:13.107Z,77.282715
2019-03-16T00:32:16.788Z,77.178955
2019-03-16T00:32:28.563Z,77.075195
2019-03-16T00:32:40.327Z,77.075195
2019-03-16T00:32:52.082Z,77.075195
2019-03-16T00:33:03.837Z,77.075195
2019-03-16T00:33:15.618Z,77.075195
2019-03-16T00:33:27.391Z,77.075195
2019-03-16T00:33:39.180Z,76.977539
2019-03-16T00:33:51.005Z,76.977539
2019-03-16T00:34:02.696Z,76.873779
2019-03-16T00:34:14.482Z,76.977539
2019-03-16T00:34:26.252Z,76.873779
2019-03-16T00:34:38.028Z,76.5625
2019-03-16T00:34:49.859Z,76.45874
2019-03-16T00:35:01.540Z,76.45874
2019-03-16T00:35:13.442Z,76.5625
2019-03-16T00:35:25.203Z,76.5625
2019-03-16T00:35:36.999Z,76.5625
2019-03-16T00:35:54.800Z,76.5625
2019-03-16T00:36:06.547Z,76.5625
2019-03-16T00:36:18.335Z,76.45874
2019-03-16T00:36:30.087Z,76.35498
2019-03-16T00:36:41.845Z,76.251221
2019-03-16T00:36:53.636Z,76.043701
2019-03-16T00:37:05.387Z,75.946045
2019-03-16T00:37:17.158Z,75.842285
2019-03-16T00:37:28.915Z,75.842285
2019-03-16T00:37:40.678Z,75.738525
2019-03-16T00:37:52.427Z,75.634766
2019-03-16T00:38:04.189Z,75.531006
2019-03-16T00:38:15.943Z,75.427246
2019-03-16T00:38:27.692Z,75.323486
2019-03-16T00:38:39.455Z,75.323486
2019-03-16T00:38:51.233Z,75.427246
2019-03-16T00:39:02.964Z,75.531006
2019-03-16T00:39:14.733Z,75.323486
2019-03-16T00:39:26.500Z,75.323486
2019-03-16T00:39:38.252Z,75.219727
2019-03-16T00:39:50.038Z,75.219727
2019-03-16T00:40:01.776Z,75.219727
2019-03-16T00:40:13.566Z,75.115967
2019-03-16T00:40:25.373Z,75.219727
2019-03-16T00:40:37.142Z,75.219727
2019-03-16T00:40:48.917Z,75.115967
2019-03-16T00:41:00.664Z,75.115967
2019-03-16T00:41:12.647Z,75.012207
2019-03-16T00:41:24.493Z,74.707031
2019-03-16T00:41:36.262Z,74.499512
2019-03-16T00:41:48.040Z,74.499512
2019-03-16T00:41:59.804Z,74.707031
2019-03-16T00:42:11.554Z,74.810791
2019-03-16T00:42:23.321Z,74.908447
2019-03-16T00:42:35.058Z,74.810791
2019-03-16T00:42:46.810Z,74.810791
2019-03-16T00:42:58.570Z,74.707031
2019-03-16T00:43:10.349Z,74.707031
2019-03-16T00:43:22.100Z,74.707031
2019-03-16T00:43:33.837Z,74.499512
2019-03-16T00:43:45.581Z,74.291992
2019-03-16T00:43:57.348Z,74.291992
2019-03-16T00:44:09.088Z,74.188232
2019-03-16T00:44:20.849Z,74.291992
2019-03-16T00:44:32.615Z,74.291992
2019-03-16T00:44:44.391Z,74.291992
2019-03-16T00:44:56.134Z,73.980713
2019-03-16T00:45:07.883Z,73.876953
2019-03-16T00:45:19.648Z,73.773193
2019-03-16T00:45:31.452Z,73.773193
2019-03-16T00:45:43.252Z,73.773193
2019-03-16T00:45:56.002Z,73.773193
2019-03-16T00:46:07.755Z,73.675537
2019-03-16T00:46:19.539Z,73.571777
2019-03-16T00:46:31.275Z,73.571777
2019-03-16T00:46:43.055Z,73.571777
2019-03-16T00:46:54.806Z,73.468018
2019-03-16T00:47:06.561Z,73.260498
2019-03-16T00:47:18.336Z,72.949219
2019-03-16T00:47:30.101Z,72.845459
2019-03-16T00:47:41.898Z,72.845459
2019-03-16T00:47:53.650Z,72.845459
2019-03-16T00:48:05.426Z,73.052979
2019-03-16T00:48:17.189Z,73.052979
2019-03-16T00:48:28.961Z,73.052979
2019-03-16T00:48:40.725Z,73.052979
2019-03-16T00:48:52.471Z,73.052979
2019-03-16T00:49:04.281Z,73.156738
2019-03-16T00:49:16.015Z,73.156738
2019-03-16T00:49:27.774Z,73.156738
2019-03-16T00:49:39.531Z,73.260498
2019-03-16T00:49:51.321Z,73.260498
2019-03-16T00:50:03.090Z,73.260498
2019-03-16T00:50:14.843Z,73.156738
2019-03-16T00:50:26.735Z,73.156738
2019-03-16T00:50:38.469Z,73.156738
2019-03-16T00:50:50.225Z,73.260498
2019-03-16T00:51:02.000Z,73.364258
2019-03-16T00:51:13.783Z,73.364258
2019-03-16T00:51:25.542Z,73.364258
2019-03-16T00:51:37.315Z,73.468018
2019-03-16T00:51:49.061Z,73.468018
2019-03-16T00:52:00.823Z,73.468018
2019-03-16T00:52:12.614Z,73.468018
2019-03-16T00:52:24.388Z,73.468018
2019-03-16T00:52:36.165Z,73.571777
2019-03-16T00:52:47.919Z,73.571777
2019-03-16T00:52:59.675Z,73.675537
2019-03-16T00:53:11.430Z,73.675537
2019-03-16T00:53:23.175Z,73.773193
2019-03-16T00:53:34.962Z,73.876953
2019-03-16T00:53:46.730Z,73.980713
2019-03-16T00:53:58.465Z,74.084473
2019-03-16T00:54:10.227Z,74.188232
2019-03-16T00:54:22.018Z,74.188232
2019-03-16T00:54:33.786Z,74.291992
2019-03-16T00:54:45.527Z,74.395752
2019-03-16T00:54:57.274Z,74.499512
2019-03-16T00:55:09.060Z,74.499512
2019-03-16T00:55:20.823Z,74.603271
2019-03-16T00:55:32.618Z,74.707031
2019-03-16T00:55:44.384Z,74.810791
2019-03-16T00:55:56.148Z,74.908447
2019-03-16T00:56:07.933Z,74.908447
2019-03-16T00:56:19.688Z,75.012207
2019-03-16T00:56:31.448Z,75.012207
2019-03-16T00:56:43.267Z,75.115967
2019-03-16T00:56:55.001Z,75.115967
2019-03-16T00:57:06.756Z,75.219727
2019-03-16T00:57:18.491Z,75.323486
2019-03-16T00:57:30.237Z,75.427246
2019-03-16T00:57:41.987Z,75.427246
2019-03-16T00:57:53.764Z,75.427246
2019-03-16T00:58:05.542Z,75.531006
2019-03-16T00:58:17.291Z,75.531006
2019-03-16T00:58:29.065Z,75.531006
2019-03-16T00:58:40.821Z,75.531006
2019-03-16T00:58:52.578Z,75.531006
2019-03-16T00:59:04.350Z,75.531006
2019-03-16T00:59:16.099Z,75.634766
2019-03-16T00:59:27.874Z,75.634766
2019-03-16T00:59:39.627Z,75.634766
2019-03-16T00:59:51.378Z,75.738525
2019-03-16T01:00:03.143Z,75.738525
2019-03-16T01:00:14.874Z,75.842285
2019-03-16T01:00:26.664Z,75.842285
2019-03-16T01:00:38.450Z,75.842285
2019-03-16T01:00:50.230Z,75.842285
2019-03-16T01:01:02.014Z,75.842285
2019-03-16T01:01:13.787Z,75.738525
2019-03-16T01:01:25.566Z,75.738525
2019-03-16T01:01:37.345Z,75.738525
2019-03-16T01:01:49.098Z,75.842285
2019-03-16T01:02:00.864Z,75.842285
2019-03-16T01:02:26.078Z,75.738525
2019-03-16T01:02:27.234Z,75.738525
2019-03-16T01:02:37.112Z,75.634766
2019-03-16T01:02:48.904Z,75.634766
2019-03-16T01:03:00.693Z,75.738525
2019-03-16T01:03:12.459Z,75.738525
2019-03-16T01:03:24.214Z,75.842285
2019-03-16T01:03:35.969Z,75.842285
2019-03-16T01:03:47.758Z,75.842285
2019-03-16T01:03:59.491Z,75.842285
2019-03-16T01:04:11.263Z,75.842285
2019-03-16T01:04:23.036Z,75.946045
2019-03-16T01:04:34.783Z,75.946045
2019-03-16T01:04:46.556Z,75.842285
2019-03-16T01:04:58.306Z,75.842285
2019-03-16T01:05:10.055Z,75.842285
2019-03-16T01:05:21.820Z,75.738525
2019-03-16T01:05:33.607Z,75.842285
2019-03-16T01:05:45.363Z,75.842285
2019-03-16T01:05:57.142Z,75.842285
2019-03-16T01:06:08.913Z,75.842285
2019-03-16T01:06:20.693Z,75.738525
2019-03-16T01:06:32.473Z,75.738525
2019-03-16T01:06:44.223Z,75.634766
2019-03-16T01:06:56.039Z,75.738525
2019-03-16T01:07:07.808Z,75.738525
2019-03-16T01:07:19.559Z,75.842285
2019-03-16T01:07:31.318Z,75.842285
2019-03-16T01:07:43.075Z,75.738525
2019-03-16T01:07:54.842Z,75.738525
2019-03-16T01:08:06.595Z,75.738525
2019-03-16T01:08:18.366Z,75.738525
2019-03-16T01:08:30.133Z,75.738525
2019-03-16T01:08:41.893Z,75.738525
2019-03-16T01:08:53.660Z,75.738525
2019-03-16T01:09:05.433Z,75.738525
2019-03-16T01:09:17.202Z,75.634766
2019-03-16T01:09:28.952Z,75.634766
2019-03-16T01:09:43.458Z,75.634766
2019-03-16T01:09:52.448Z,75.531006
2019-03-16T01:10:05.180Z,75.531006
2019-03-16T01:10:16.940Z,75.531006
2019-03-16T01:10:28.714Z,75.531006
2019-03-16T01:10:40.448Z,75.634766
2019-03-16T01:10:52.212Z,75.634766
2019-03-16T01:11:03.993Z,75.634766
2019-03-16T01:11:15.751Z,75.634766
2019-03-16T01:11:27.529Z,75.634766
2019-03-16T01:11:39.286Z,75.634766
2019-03-16T01:11:51.063Z,75.634766
2019-03-16T01:12:02.816Z,75.634766
2019-03-16T01:12:14.557Z,75.531006
2019-03-16T01:12:26.323Z,75.427246
2019-03-16T01:12:38.103Z,75.427246
2019-03-16T01:12:49.894Z,75.427246
2019-03-16T01:13:01.642Z,75.427246
2019-03-16T01:13:13.371Z,75.323486
2019-03-16T01:13:25.155Z,75.323486
2019-03-16T01:13:36.903Z,75.219727
2019-03-16T01:13:48.665Z,75.323486
2019-03-16T01:14:00.429Z,75.323486
2019-03-16T01:14:12.171Z,75.323486
2019-03-16T01:14:23.971Z,75.323486
2019-03-16T01:14:35.747Z,75.323486
2019-03-16T01:14:47.518Z,75.427246
2019-03-16T01:14:59.259Z,75.323486
2019-03-16T01:15:10.993Z,75.323486
2019-03-16T01:15:22.750Z,75.323486
2019-03-16T01:15:34.500Z,75.323486
2019-03-16T01:15:46.257Z,75.323486
2019-03-16T01:15:58.040Z,75.323486
2019-03-16T01:16:09.860Z,75.323486
2019-03-16T01:16:21.557Z,75.323486
2019-03-16T01:16:33.309Z,75.323486
2019-03-16T01:16:45.049Z,75.427246
2019-03-16T01:16:56.840Z,75.427246
2019-03-16T01:17:08.619Z,75.323486
2019-03-16T01:17:20.370Z,75.219727
2019-03-16T01:17:32.124Z,75.115967
2019-03-16T01:17:43.889Z,75.012207
2019-03-16T01:17:55.670Z,75.115967
2019-03-16T01:18:07.461Z,75.115967
2019-03-16T01:18:19.205Z,75.115967
2019-03-16T01:18:30.969Z,75.115967
2019-03-16T01:18:42.734Z,75.115967
2019-03-16T01:18:54.489Z,75.115967
2019-03-16T01:19:06.259Z,75.219727
2019-03-16T01:19:18.025Z,75.219727
2019-03-16T01:19:29.792Z,75.115967
2019-03-16T01:19:41.560Z,75.115967
2019-03-16T01:19:53.332Z,75.012207
2019-03-16T01:20:05.102Z,75.012207
2019-03-16T01:20:16.896Z,75.012207
2019-03-16T01:20:28.681Z,75.115967
2019-03-16T01:20:40.476Z,75.219727
2019-03-16T01:20:52.229Z,75.219727
2019-03-16T01:21:03.986Z,75.219727
2019-03-16T01:21:15.732Z,75.012207
2019-03-16T01:21:27.506Z,74.908447
2019-03-16T01:21:39.233Z,74.908447
2019-03-16T01:21:50.984Z,75.012207
2019-03-16T01:22:02.763Z,75.115967
2019-03-16T01:22:14.532Z,75.012207
2019-03-16T01:22:26.300Z,75.012207
2019-03-16T01:22:38.054Z,74.908447
2019-03-16T01:22:49.954Z,74.908447
2019-03-16T01:23:01.698Z,74.908447
2019-03-16T01:23:13.438Z,75.012207
2019-03-16T01:23:25.209Z,75.012207
2019-03-16T01:23:36.975Z,74.810791
2019-03-16T01:23:48.789Z,74.810791
2019-03-16T01:24:00.579Z,74.810791
2019-03-16T01:24:12.371Z,74.908447
2019-03-16T01:24:24.122Z,74.908447
2019-03-16T01:24:35.902Z,75.012207
2019-03-16T01:24:47.686Z,74.908447
2019-03-16T01:24:59.448Z,74.908447
2019-03-16T01:25:11.198Z,74.908447
2019-03-16T01:25:22.949Z,74.908447
2019-03-16T01:25:34.704Z,74.908447
2019-03-16T01:25:46.448Z,74.810791
2019-03-16T01:25:58.197Z,74.707031
2019-03-16T01:26:09.961Z,74.707031
2019-03-16T01:26:21.761Z,74.810791
2019-03-16T01:26:33.542Z,74.810791
2019-03-16T01:26:45.319Z,74.707031
2019-03-16T01:26:57.049Z,74.707031
2019-03-16T01:27:08.806Z,74.603271
2019-03-16T01:27:20.584Z,74.395752
2019-03-16T01:27:32.342Z,74.395752
2019-03-16T01:27:44.109Z,74.395752
2019-03-16T01:27:55.920Z,74.395752
2019-03-16T01:28:08.677Z,74.291992
2019-03-16T01:28:20.462Z,74.291992
2019-03-16T01:28:32.221Z,74.395752
2019-03-16T01:28:44.059Z,74.395752
2019-03-16T01:28:55.731Z,74.499512
2019-03-16T01:29:07.500Z,74.499512
2019-03-16T01:29:19.262Z,74.499512
2019-03-16T01:29:30.995Z,74.603271
2019-03-16T01:29:42.763Z,74.603271
2019-03-16T01:29:54.533Z,74.499512
2019-03-16T01:30:06.284Z,74.291992
2019-03-16T01:30:18.059Z,74.291992
2019-03-16T01:30:29.835Z,74.188232
2019-03-16T01:30:41.598Z,74.084473
2019-03-16T01:30:53.363Z,74.084473
2019-03-16T01:31:05.140Z,74.084473
2019-03-16T01:31:16.917Z,74.084473
2019-03-16T01:31:28.655Z,74.084473
2019-03-16T01:31:40.414Z,74.084473
2019-03-16T01:31:52.185Z,74.084473
2019-03-16T01:32:03.944Z,74.084473
2019-03-16T01:32:15.715Z,74.084473
2019-03-16T01:32:39.660Z,74.084473
2019-03-16T01:32:41.086Z,73.980713
2019-03-16T01:32:51.909Z,73.980713
2019-03-16T01:33:03.710Z,73.876953
2019-03-16T01:33:15.469Z,73.876953
2019-03-16T01:33:27.215Z,73.876953
2019-03-16T01:33:38.985Z,73.876953
2019-03-16T01:33:50.752Z,73.876953
2019-03-16T01:34:02.517Z,73.876953
2019-03-16T01:34:14.308Z,73.980713
2019-03-16T01:34:26.094Z,73.980713
2019-03-16T01:34:37.844Z,73.980713
2019-03-16T01:34:49.641Z,73.876953
2019-03-16T01:35:01.423Z,73.876953
2019-03-16T01:35:13.185Z,73.876953
2019-03-16T01:35:24.971Z,73.876953
2019-03-16T01:35:36.729Z,73.876953
2019-03-16T01:35:48.469Z,73.876953
2019-03-16T01:36:00.255Z,73.773193
2019-03-16T01:36:12.020Z,73.773193
2019-03-16T01:36:23.801Z,73.773193
2019-03-16T01:36:35.559Z,73.773193
2019-03-16T01:36:47.351Z,73.876953
2019-03-16T01:36:59.098Z,73.980713
2019-03-16T01:37:10.859Z,73.876953
2019-03-16T01:37:22.649Z,73.773193
2019-03-16T01:37:34.416Z,73.675537
2019-03-16T01:37:46.163Z,73.675537
2019-03-16T01:37:57.946Z,73.675537
2019-03-16T01:38:09.684Z,73.773193
2019-03-16T01:38:21.435Z,73.876953
2019-03-16T01:38:33.182Z,73.876953
2019-03-16T01:38:44.924Z,73.980713
2019-03-16T01:38:56.675Z,74.084473
2019-03-16T01:39:08.402Z,74.188232
2019-03-16T01:39:20.199Z,74.084473
2019-03-16T01:39:31.970Z,73.980713
2019-03-16T01:39:43.711Z,73.876953
2019-03-16T01:39:55.497Z,73.876953
2019-03-16T01:40:07.295Z,73.876953
2019-03-16T01:40:19.058Z,73.876953
2019-03-16T01:40:30.840Z,73.773193
2019-03-16T01:40:42.626Z,73.773193
2019-03-16T01:40:54.354Z,73.773193
2019-03-16T01:41:06.135Z,73.876953
2019-03-16T01:41:17.869Z,73.876953
2019-03-16T01:41:29.633Z,73.980713
2019-03-16T01:41:41.396Z,73.980713
2019-03-16T01:41:53.157Z,73.980713
2019-03-16T01:42:04.908Z,73.876953
2019-03-16T01:42:16.664Z,73.876953
2019-03-16T01:42:28.454Z,73.980713
2019-03-16T01:42:40.203Z,73.980713
2019-03-16T01:42:51.979Z,73.980713
2019-03-16T01:43:03.720Z,73.980713
2019-03-16T01:43:15.491Z,73.876953
2019-03-16T01:43:27.244Z,73.876953
2019-03-16T01:43:39.016Z,73.876953
2019-03-16T01:43:50.917Z,73.876953
2019-03-16T01:44:02.690Z,73.773193
2019-03-16T01:44:14.439Z,73.773193
2019-03-16T01:44:26.181Z,73.773193
2019-03-16T01:44:37.941Z,73.773193
2019-03-16T01:44:49.708Z,73.876953
2019-03-16T01:45:01.489Z,73.980713
2019-03-16T01:45:13.293Z,73.980713
2019-03-16T01:45:25.045Z,73.980713
2019-03-16T01:45:36.810Z,73.876953
2019-03-16T01:45:49.565Z,73.876953
2019-03-16T01:46:01.329Z,73.980713
2019-03-16T01:46:13.100Z,73.980713
2019-03-16T01:46:24.861Z,73.980713
2019-03-16T01:46:36.633Z,73.980713
2019-03-16T01:46:48.382Z,73.876953
2019-03-16T01:47:00.120Z,73.876953
2019-03-16T01:47:11.874Z,73.876953
2019-03-16T01:47:23.646Z,73.876953
2019-03-16T01:47:35.402Z,73.876953
2019-03-16T01:47:47.165Z,73.876953
2019-03-16T01:47:58.921Z,73.876953
2019-03-16T01:48:10.687Z,73.980713
2019-03-16T01:48:22.449Z,73.980713
2019-03-16T01:48:34.225Z,73.980713
2019-03-16T01:48:46.011Z,73.980713
2019-03-16T01:48:57.762Z,73.980713
2019-03-16T01:49:09.527Z,73.980713
2019-03-16T01:49:21.303Z,74.084473
2019-03-16T01:49:33.063Z,73.980713
2019-03-16T01:49:45.820Z,73.980713
2019-03-16T01:49:57.589Z,73.980713
2019-03-16T01:50:09.352Z,73.980713
2019-03-16T01:50:21.747Z,73.980713
2019-03-16T01:50:32.886Z,73.980713
2019-03-16T01:50:44.648Z,73.876953
2019-03-16T01:50:56.430Z,73.876953
2019-03-16T01:51:08.187Z,73.980713
2019-03-16T01:51:19.948Z,73.876953
2019-03-16T01:51:31.702Z,73.876953
2019-03-16T01:51:43.487Z,73.876953
2019-03-16T01:51:55.272Z,73.876953
2019-03-16T01:52:07.041Z,73.876953
2019-03-16T01:52:18.773Z,73.876953
2019-03-16T01:52:30.559Z,73.876953
2019-03-16T01:52:42.331Z,73.980713
2019-03-16T01:52:54.078Z,73.980713
2019-03-16T01:53:05.814Z,74.084473
2019-03-16T01:53:17.556Z,74.084473
2019-03-16T01:53:29.396Z,74.084473
2019-03-16T01:53:41.165Z,74.084473
2019-03-16T01:53:52.907Z,73.980713
2019-03-16T01:54:04.661Z,73.980713
2019-03-16T01:54:16.419Z,73.980713
2019-03-16T01:54:28.179Z,73.980713
2019-03-16T01:54:39.933Z,73.876953
2019-03-16T01:54:51.699Z,73.876953
2019-03-16T01:55:03.468Z,73.876953
2019-03-16T01:55:15.363Z,73.773193
2019-03-16T01:55:27.143Z,73.675537
2019-03-16T01:55:38.891Z,73.675537
2019-03-16T01:55:50.629Z,73.675537
2019-03-16T01:56:02.402Z,73.571777
2019-03-16T01:56:14.161Z,73.571777
2019-03-16T01:56:25.929Z,73.675537
2019-03-16T01:56:38.686Z,73.773193
2019-03-16T01:56:50.475Z,73.773193
2019-03-16T01:57:02.246Z,73.773193
2019-03-16T01:57:14.028Z,73.773193
2019-03-16T01:57:25.811Z,73.773193
2019-03-16T01:57:37.562Z,73.773193
2019-03-16T01:57:49.323Z,73.675537
2019-03-16T01:58:01.070Z,73.571777
2019-03-16T01:58:12.834Z,73.571777
2019-03-16T01:58:24.599Z,73.571777
2019-03-16T01:58:36.378Z,73.571777
2019-03-16T01:58:48.131Z,73.468018
2019-03-16T01:58:59.907Z,73.364258
2019-03-16T01:59:11.661Z,73.260498
2019-03-16T01:59:23.430Z,73.156738
2019-03-16T01:59:35.182Z,73.156738
2019-03-16T01:59:46.955Z,73.156738
2019-03-16T01:59:58.720Z,73.052979
2019-03-16T02:00:10.509Z,73.052979
2019-03-16T02:00:22.293Z,73.052979
2019-03-16T02:00:34.071Z,73.052979
2019-03-16T02:00:45.823Z,73.156738
2019-03-16T02:00:57.575Z,73.260498
2019-03-16T02:01:09.359Z,73.260498
2019-03-16T02:01:21.110Z,73.364258
2019-03-16T02:01:32.880Z,73.364258
2019-03-16T02:01:44.642Z,73.364258
2019-03-16T02:01:56.432Z,73.364258
2019-03-16T02:02:08.252Z,73.364258
2019-03-16T02:02:20.009Z,73.260498
2019-03-16T02:02:31.768Z,73.052979
2019-03-16T02:02:54.764Z,73.052979
2019-03-16T02:02:57.215Z,73.156738
2019-03-16T02:03:08.985Z,73.260498
2019-03-16T02:03:21.740Z,73.260498
2019-03-16T02:03:33.503Z,73.364258
2019-03-16T02:03:45.289Z,73.364258
2019-03-16T02:03:57.072Z,73.364258
2019-03-16T02:04:08.821Z,73.364258
2019-03-16T02:04:20.567Z,73.260498
2019-03-16T02:04:32.328Z,73.156738
2019-03-16T02:04:44.118Z,73.260498
2019-03-16T02:04:55.874Z,73.260498
2019-03-16T02:05:07.649Z,73.260498
2019-03-16T02:05:19.439Z,73.260498
2019-03-16T02:05:31.191Z,73.156738
2019-03-16T02:05:43.000Z,73.156738
2019-03-16T02:05:54.767Z,73.156738
2019-03-16T02:06:06.511Z,73.156738
2019-03-16T02:06:18.254Z,73.156738
2019-03-16T02:06:30.010Z,73.052979
2019-03-16T02:06:41.765Z,73.052979
2019-03-16T02:06:53.553Z,73.052979
2019-03-16T02:07:05.337Z,72.949219
2019-03-16T02:07:17.082Z,72.845459
2019-03-16T02:07:28.836Z,72.845459
2019-03-16T02:07:40.592Z,72.845459
2019-03-16T02:07:52.346Z,72.949219
2019-03-16T02:08:04.077Z,73.052979
2019-03-16T02:08:15.862Z,73.052979
2019-03-16T02:08:27.605Z,73.156738
2019-03-16T02:08:39.365Z,73.260498
2019-03-16T02:08:51.119Z,73.260498
2019-03-16T02:09:02.922Z,73.260498
2019-03-16T02:09:14.661Z,73.260498
2019-03-16T02:09:26.420Z,73.156738
2019-03-16T02:09:38.184Z,73.260498
2019-03-16T02:09:49.947Z,73.260498
2019-03-16T02:10:01.731Z,73.052979
2019-03-16T02:10:13.488Z,72.949219
2019-03-16T02:10:25.263Z,72.741699
2019-03-16T02:10:37.009Z,72.741699
2019-03-16T02:10:48.753Z,72.845459
2019-03-16T02:11:00.494Z,72.845459
2019-03-16T02:11:12.237Z,72.845459
2019-03-16T02:11:23.992Z,72.845459
2019-03-16T02:11:35.753Z,72.949219
2019-03-16T02:11:47.510Z,72.845459
2019-03-16T02:12:00.555Z,72.949219
2019-03-16T02:12:11.034Z,72.949219
2019-03-16T02:12:22.786Z,72.845459
2019-03-16T02:12:34.553Z,72.741699
2019-03-16T02:12:46.321Z,72.644043
2019-03-16T02:12:58.218Z,72.540283
2019-03-16T02:13:09.903Z,72.540283
2019-03-16T02:13:21.647Z,72.540283
2019-03-16T02:13:33.399Z,72.436523
2019-03-16T02:13:45.139Z,72.436523
2019-03-16T02:13:56.912Z,72.540283
2019-03-16T02:14:08.640Z,72.644043
2019-03-16T02:14:20.397Z,72.644043
2019-03-16T02:14:32.170Z,72.741699